Etusivu
METAR-TAF:

METAR-TAF

Lentoasemat :

Šiauliai, Liettua

Leveyspiiri: 55-53-38N, Pituuspiiri: 023-23-42E, korkeus merenpinnasta: 135 m

Tämänhetkinen sää

Tämä raportti tehtiin 21 minuuttia sitten, kello 03.20 UTC
Tuuli 5 kn idästä
Lämpötila 13°C
Kosteus 100%
Ilmanpaine 1013 hPa
Näkyvyys: 8000 m
Pilvistä 200 ft:n korkeudessa
heikkoa tihkusadetta

METAR: EYSA 280320Z 08005KT 8000 -DZ OVC002 13/13 Q1013 AMB NOSIG

Aika: 06:41 (03:41 UTC)

Sääennuste

Tämä raportti tehtiin 1 tunti ja 41 minuuttia sitten, kello 02.00 UTC
Ennuste voimassa 28. päivästä klo 03 UTC - 28. päivään klo 12 UTC
Tuuli 8 kn idästä
Näkyvyys: 5000 m
Pilvistä 500 ft:n korkeudessa
utua
Ajoittain
28. päivästä klo 03 UTC - 28. päivään klo 06 UTC
Näkyvyys: 0600 m
Pilvistä 200 ft:n korkeudessa
sumua
Tulossa
28. päivästä klo 09 UTC - 28. päivään klo 11 UTC
Näkyvyys: 9000 m

TAF: EYSA 280200Z 2803/2812 10008KT 5000 BR OVC005 TEMPO 2803/2806 0600 FG OVC002 BECMG 2809/2811 9000 NSW

Säähavainnot ja -ennusteet yli 4000 lentoasemalta (METAR- ja TAF-raportit).

Käytössä olevat sääasemat on merkitty karttaan keltaisilla ja punaisilla pisteillä.

Aseta hiiri pisteen päälle nähdäksesi sääaseman nimen.

Klikkaa sitten nähdäksesi säähavainnot ja -ennusteet.

Kartan vaihtaminen: klikkaa mustalla rastilla varustettuja vihreitä pisteitä, niin voit zoomata sisään; viivalla varustettua vihreää pistettä, niin voit zoomata ulos tai vihreitä nuolia, niin pääset viereisille kartoille.


METAR-TAF: